createdAt,value
2023-11-14T00:00:51.961Z,12.16
2023-11-14T00:03:19.126Z,12.18
2023-11-14T00:05:47.746Z,12.12
2023-11-14T00:08:15.392Z,12.10
2023-11-14T00:10:42.460Z,12.07
2023-11-14T00:13:09.528Z,12.06
2023-11-14T00:15:36.714Z,11.96
2023-11-14T00:18:04.059Z,11.92
2023-11-14T00:20:31.134Z,11.96
2023-11-14T00:22:58.568Z,11.83
2023-11-14T00:25:25.706Z,11.77
2023-11-14T00:27:53.736Z,11.74
2023-11-14T00:30:20.978Z,11.78
2023-11-14T00:32:48.422Z,11.79
2023-11-14T00:35:15.694Z,11.72
2023-11-14T00:37:42.866Z,11.72
2023-11-14T00:40:10.895Z,11.63
2023-11-14T00:42:37.868Z,11.55
2023-11-14T00:45:05.269Z,11.35
2023-11-14T00:47:33.124Z,11.41
2023-11-14T00:50:00.343Z,11.46
2023-11-14T00:52:27.588Z,11.48
2023-11-14T00:54:54.579Z,11.48
2023-11-14T00:57:21.773Z,11.34
2023-11-14T00:59:49.226Z,11.40
2023-11-14T01:02:16.690Z,11.31
2023-11-14T01:04:43.830Z,11.30
2023-11-14T01:07:11.704Z,11.32
2023-11-14T01:09:38.759Z,11.35
2023-11-14T01:12:06.350Z,11.23
2023-11-14T01:14:34.114Z,11.17
2023-11-14T01:17:02.300Z,11.24
2023-11-14T01:19:29.544Z,11.22
2023-11-14T01:21:56.610Z,11.28
2023-11-14T01:24:23.662Z,11.25
2023-11-14T01:26:50.776Z,11.20
2023-11-14T01:29:17.817Z,11.21
2023-11-14T01:31:44.830Z,11.20
2023-11-14T01:34:11.906Z,11.16
2023-11-14T01:36:39.582Z,11.13
2023-11-14T01:39:08.318Z,11.06
2023-11-14T01:41:37.708Z,11.07
2023-11-14T01:44:05.743Z,11.00
2023-11-14T01:46:33.218Z,11.03
2023-11-14T01:49:00.759Z,11.00
2023-11-14T01:51:28.367Z,10.97
2023-11-14T01:53:56.841Z,10.97
2023-11-14T01:56:25.096Z,10.99
2023-11-14T01:58:52.891Z,10.94
2023-11-14T02:01:22.173Z,10.95
2023-11-14T02:03:50.173Z,10.93
2023-11-14T02:06:17.283Z,10.99
2023-11-14T02:08:45.163Z,11.00
2023-11-14T02:11:12.167Z,11.01
2023-11-14T02:13:45.106Z,10.95
2023-11-14T02:16:13.556Z,10.95
2023-11-14T02:18:40.639Z,10.97
2023-11-14T02:21:08.394Z,10.95
2023-11-14T02:23:38.605Z,10.89
2023-11-14T02:26:06.330Z,10.90
2023-11-14T02:28:33.414Z,10.84
2023-11-14T02:31:02.096Z,10.84
2023-11-14T02:33:29.225Z,10.82
2023-11-14T02:35:56.423Z,10.77
2023-11-14T02:38:23.506Z,10.75
2023-11-14T02:40:52.458Z,10.80
2023-11-14T02:43:20.384Z,10.74
2023-11-14T02:45:47.546Z,10.73
2023-11-14T02:48:15.714Z,10.70
2023-11-14T02:50:52.178Z,10.73
2023-11-14T02:53:21.488Z,10.70
2023-11-14T02:55:53.131Z,10.71
2023-11-14T02:58:20.852Z,10.71
2023-11-14T03:00:53.207Z,10.69
2023-11-14T03:03:21.331Z,10.66
2023-11-14T03:05:48.506Z,10.64
2023-11-14T03:08:15.573Z,10.61
2023-11-14T03:10:44.405Z,10.53
2023-11-14T03:13:12.147Z,10.58
2023-11-14T03:15:39.282Z,10.59
2023-11-14T03:18:07.181Z,10.59
2023-11-14T03:20:35.437Z,10.57
2023-11-14T03:23:04.867Z,10.59
2023-11-14T03:25:32.667Z,10.53
2023-11-14T03:28:00.477Z,10.59
2023-11-14T03:30:28.393Z,10.50
2023-11-14T03:32:56.404Z,10.52
2023-11-14T03:35:24.526Z,10.53
2023-11-14T03:37:51.834Z,10.53
2023-11-14T03:40:18.942Z,10.50
2023-11-14T03:42:46.103Z,10.48
2023-11-14T03:45:13.264Z,10.49
2023-11-14T03:47:40.293Z,10.54
2023-11-14T03:50:09.773Z,10.46
2023-11-14T03:52:38.807Z,10.52
2023-11-14T03:55:06.918Z,10.47
2023-11-14T03:57:34.158Z,10.45
2023-11-14T04:00:01.118Z,10.49
2023-11-14T04:02:28.592Z,10.49
2023-11-14T04:04:56.139Z,10.50
2023-11-14T04:07:23.259Z,10.47
2023-11-14T04:09:50.330Z,10.42
2023-11-14T04:12:17.562Z,10.44
2023-11-14T04:14:44.753Z,10.43
2023-11-14T04:17:12.078Z,10.40
2023-11-14T04:19:39.204Z,10.39
2023-11-14T04:22:06.300Z,10.38
2023-11-14T04:24:33.332Z,10.29
2023-11-14T04:27:01.498Z,10.31
2023-11-14T04:29:28.619Z,10.29
2023-11-14T04:31:55.946Z,10.29
2023-11-14T04:34:23.629Z,10.27
2023-11-14T04:36:50.742Z,10.27
2023-11-14T04:39:17.999Z,10.27
2023-11-14T04:41:45.205Z,10.29
2023-11-14T04:44:12.752Z,10.27
2023-11-14T04:46:45.621Z,10.21
2023-11-14T04:49:13.122Z,10.19
2023-11-14T04:51:40.233Z,10.13
2023-11-14T04:54:07.332Z,10.13
2023-11-14T04:56:35.979Z,10.07
2023-11-14T04:59:03.511Z,10.00
2023-11-14T05:01:30.859Z,10.04
2023-11-14T05:03:57.956Z,9.97
2023-11-14T05:06:25.212Z,9.96
2023-11-14T05:08:52.472Z,9.90
2023-11-14T05:11:19.544Z,9.92
2023-11-14T05:13:46.530Z,9.85
2023-11-14T05:16:22.045Z,9.88
2023-11-14T05:18:52.142Z,9.83
2023-11-14T05:21:19.217Z,9.66
2023-11-14T05:23:46.399Z,9.68
2023-11-14T05:26:13.487Z,9.66
2023-11-14T05:28:40.581Z,9.71
2023-11-14T05:31:08.990Z,9.64
2023-11-14T05:33:36.240Z,9.56
2023-11-14T05:36:03.414Z,9.48
2023-11-14T05:38:31.390Z,9.51
2023-11-14T05:40:58.499Z,9.43
2023-11-14T05:43:26.092Z,9.44
2023-11-14T05:45:55.189Z,9.40
2023-11-14T05:48:22.226Z,9.41
2023-11-14T05:50:49.366Z,9.30
2023-11-14T05:53:17.260Z,9.31
2023-11-14T05:55:44.606Z,9.22
2023-11-14T05:58:12.651Z,9.25
2023-11-14T06:00:39.617Z,9.24
2023-11-14T06:03:06.864Z,9.21
2023-11-14T06:05:34.042Z,9.18
2023-11-14T06:08:01.985Z,9.13
2023-11-14T06:10:29.132Z,9.13
2023-11-14T06:12:59.480Z,9.10
2023-11-14T06:15:28.161Z,9.06
2023-11-14T06:17:55.451Z,8.96
2023-11-14T06:20:25.127Z,8.97
2023-11-14T06:22:52.441Z,8.99
2023-11-14T06:25:19.912Z,9.00
2023-11-14T06:27:46.950Z,8.93
2023-11-14T06:30:14.427Z,8.90
2023-11-14T06:32:41.539Z,8.85
2023-11-14T06:35:08.839Z,8.80
2023-11-14T06:37:38.622Z,8.76
2023-11-14T06:40:07.058Z,8.69
2023-11-14T06:42:35.508Z,8.70
2023-11-14T06:45:02.488Z,8.62
2023-11-14T06:47:30.541Z,8.74
2023-11-14T06:49:57.698Z,8.70
2023-11-14T06:52:24.764Z,8.73
2023-11-14T06:54:51.890Z,8.70
2023-11-14T06:57:18.849Z,8.73
2023-11-14T06:59:48.352Z,8.75
2023-11-14T07:02:15.829Z,8.74
2023-11-14T07:04:43.138Z,8.67
2023-11-14T07:07:10.299Z,8.72
2023-11-14T07:09:37.929Z,8.68
2023-11-14T07:12:05.239Z,8.66
2023-11-14T07:14:32.470Z,8.65
2023-11-14T07:16:59.687Z,8.66
2023-11-14T07:19:26.750Z,8.66
2023-11-14T07:21:53.739Z,8.63
2023-11-14T07:24:20.713Z,8.61
2023-11-14T07:26:47.777Z,8.58
2023-11-14T07:29:14.930Z,8.64
2023-11-14T07:31:43.844Z,8.62
2023-11-14T07:34:11.109Z,8.59
2023-11-14T07:36:38.510Z,8.59
2023-11-14T07:39:06.805Z,8.62
2023-11-14T07:41:34.615Z,8.64
2023-11-14T07:44:02.215Z,8.69
2023-11-14T07:46:29.362Z,8.72
2023-11-14T07:48:56.723Z,8.70
2023-11-14T07:51:24.999Z,8.67
2023-11-14T07:53:55.531Z,8.56
2023-11-14T07:56:23.423Z,8.50
2023-11-14T07:58:50.971Z,8.47
2023-11-14T08:01:18.179Z,8.45
2023-11-14T08:03:46.230Z,8.45
2023-11-14T08:06:13.297Z,8.49
2023-11-14T08:08:40.297Z,8.47
2023-11-14T08:11:07.448Z,8.45
2023-11-14T08:13:34.495Z,8.44
2023-11-14T08:16:01.549Z,8.45
2023-11-14T08:18:28.494Z,8.48
2023-11-14T08:20:55.602Z,8.43
2023-11-14T08:23:22.728Z,8.45
2023-11-14T08:25:49.856Z,8.44
2023-11-14T08:28:16.910Z,8.38
2023-11-14T08:30:43.931Z,8.35
2023-11-14T08:33:11.607Z,8.36
2023-11-14T08:35:38.743Z,8.30
2023-11-14T08:38:13.984Z,8.31
2023-11-14T08:40:46.630Z,8.11
2023-11-14T08:43:13.681Z,8.15
2023-11-14T08:45:40.917Z,8.07
2023-11-14T08:48:09.579Z,8.22
2023-11-14T08:50:37.721Z,8.29
2023-11-14T08:53:05.297Z,8.42
2023-11-14T08:55:32.915Z,8.49
2023-11-14T08:58:01.305Z,8.44
2023-11-14T09:00:28.796Z,8.45
2023-11-14T09:02:55.831Z,8.51
2023-11-14T09:05:23.061Z,8.56
2023-11-14T09:07:50.207Z,8.59
2023-11-14T09:10:17.307Z,8.45
2023-11-14T09:12:44.498Z,8.55
2023-11-14T09:15:14.905Z,8.56
2023-11-14T09:17:46.550Z,8.70
2023-11-14T09:20:18.580Z,8.79
2023-11-14T09:22:46.129Z,8.65
2023-11-14T09:25:13.529Z,8.73
2023-11-14T09:27:41.094Z,8.75
2023-11-14T09:30:10.239Z,8.85
2023-11-14T09:32:37.502Z,8.87
2023-11-14T09:35:06.068Z,8.95
2023-11-14T09:37:33.127Z,8.88
2023-11-14T09:40:00.146Z,8.80
2023-11-14T09:42:27.955Z,8.90
2023-11-14T09:44:55.646Z,8.73
2023-11-14T09:47:23.428Z,8.84
2023-11-14T09:49:50.735Z,8.91
2023-11-14T09:52:18.085Z,8.92
2023-11-14T09:54:45.781Z,8.94
2023-11-14T09:57:14.498Z,9.05
2023-11-14T09:59:44.474Z,9.04
2023-11-14T10:02:12.725Z,9.05
2023-11-14T10:04:41.173Z,9.15
2023-11-14T10:07:09.642Z,9.09
2023-11-14T10:09:39.224Z,9.16
2023-11-14T10:12:20.334Z,9.16
2023-11-14T10:14:51.289Z,9.17
2023-11-14T10:17:19.595Z,9.23
2023-11-14T10:20:07.341Z,9.23
2023-11-14T10:22:36.475Z,9.23
2023-11-14T10:25:04.211Z,9.13
2023-11-14T10:27:38.290Z,9.08
2023-11-14T10:30:08.282Z,9.09
2023-11-14T10:32:35.435Z,9.03
2023-11-14T10:35:19.680Z,9.11
2023-11-14T10:37:46.854Z,9.12
2023-11-14T10:40:14.012Z,9.06
2023-11-14T10:42:41.134Z,9.02
2023-11-14T10:45:09.286Z,9.14
2023-11-14T10:47:44.718Z,9.14
2023-11-14T10:50:29.973Z,9.28
2023-11-14T10:52:57.959Z,9.23
2023-11-14T10:55:26.407Z,9.26
2023-11-14T10:57:58.357Z,9.23
2023-11-14T11:00:26.356Z,9.29
2023-11-14T11:02:54.871Z,9.26
2023-11-14T11:05:30.957Z,9.32
2023-11-14T11:08:06.747Z,9.33
2023-11-14T11:10:38.595Z,9.32
2023-11-14T11:13:16.822Z,9.36
2023-11-14T11:15:51.772Z,9.28
2023-11-14T11:18:36.351Z,9.38
2023-11-14T11:21:14.175Z,9.46
2023-11-14T11:24:20.319Z,9.42
2023-11-14T11:27:23.135Z,9.32
2023-11-14T11:29:56.420Z,9.46
2023-11-14T11:32:35.887Z,9.49
2023-11-14T11:35:19.684Z,9.44
2023-11-14T11:37:54.890Z,9.53
2023-11-14T11:40:32.161Z,9.56
2023-11-14T11:43:17.114Z,9.53
2023-11-14T11:45:51.172Z,9.57
2023-11-14T11:48:37.260Z,9.51
2023-11-14T11:51:21.461Z,9.36
2023-11-14T11:53:50.691Z,9.55
2023-11-14T11:56:35.960Z,9.55
2023-11-14T11:59:04.802Z,9.72
2023-11-14T12:01:32.852Z,9.63
2023-11-14T12:04:01.301Z,9.60
2023-11-14T12:06:28.849Z,9.71
2023-11-14T12:08:56.717Z,9.71
2023-11-14T12:11:23.957Z,9.66
2023-11-14T12:13:54.942Z,9.70
2023-11-14T12:16:25.899Z,9.72
2023-11-14T12:18:52.931Z,9.71
2023-11-14T12:21:20.490Z,9.72
2023-11-14T12:23:48.100Z,9.82
2023-11-14T12:26:16.014Z,9.71
2023-11-14T12:28:45.052Z,9.80
2023-11-14T12:31:15.211Z,9.83
2023-11-14T12:33:51.911Z,9.78
2023-11-14T12:36:26.335Z,9.66
2023-11-14T12:38:55.437Z,9.57
2023-11-14T12:41:30.772Z,9.63
2023-11-14T12:44:08.011Z,9.59
2023-11-14T12:46:38.693Z,9.66
2023-11-14T12:49:12.461Z,9.42
2023-11-14T12:51:51.663Z,9.39
2023-11-14T12:54:21.842Z,9.44
2023-11-14T12:56:50.037Z,9.30
2023-11-14T12:59:18.260Z,9.34
2023-11-14T13:01:46.639Z,9.37
2023-11-14T13:04:14.659Z,9.24
2023-11-14T13:06:44.600Z,9.20
2023-11-14T13:09:12.700Z,9.26
2023-11-14T13:11:42.799Z,9.28
2023-11-14T13:14:11.006Z,9.23
2023-11-14T13:16:38.167Z,9.15
2023-11-14T13:19:05.395Z,9.08
2023-11-14T13:21:32.853Z,8.90
2023-11-14T13:23:59.833Z,8.93
2023-11-14T13:26:26.817Z,9.00
2023-11-14T13:28:53.860Z,8.94
2023-11-14T13:31:20.863Z,8.76
2023-11-14T13:33:48.122Z,8.77
2023-11-14T13:36:20.008Z,8.70
2023-11-14T13:38:47.195Z,8.68
2023-11-14T13:41:16.848Z,8.56
2023-11-14T13:43:45.187Z,8.56
2023-11-14T13:46:23.744Z,8.70
2023-11-14T13:48:56.707Z,8.63
2023-11-14T13:51:24.588Z,8.60
2023-11-14T13:53:52.450Z,8.66
2023-11-14T13:56:20.661Z,8.68
2023-11-14T13:58:48.157Z,8.63
2023-11-14T14:01:18.267Z,8.51
2023-11-14T14:03:46.140Z,8.51
2023-11-14T14:06:14.840Z,8.56
2023-11-14T14:08:42.359Z,8.60
2023-11-14T14:11:10.426Z,8.55
2023-11-14T14:13:37.763Z,8.54
2023-11-14T14:16:05.898Z,8.48
2023-11-14T14:18:33.451Z,8.52
2023-11-14T14:21:05.326Z,8.49
2023-11-14T14:23:33.457Z,8.56
2023-11-14T14:26:02.199Z,8.58
2023-11-14T14:28:36.008Z,8.56
2023-11-14T14:31:08.117Z,8.43
2023-11-14T14:33:35.980Z,8.50
2023-11-14T14:36:03.077Z,8.53
2023-11-14T14:38:30.134Z,8.55
2023-11-14T14:40:57.157Z,8.41
2023-11-14T14:43:30.630Z,8.33
2023-11-14T14:45:58.433Z,8.28
2023-11-14T14:48:25.856Z,8.32
2023-11-14T14:50:53.824Z,8.22
2023-11-14T14:53:21.491Z,8.15
2023-11-14T14:55:49.177Z,8.21
2023-11-14T14:58:19.104Z,8.33
2023-11-14T15:00:46.260Z,8.39
2023-11-14T15:03:21.316Z,8.34
2023-11-14T15:05:52.663Z,8.39
2023-11-14T15:08:21.243Z,8.44
2023-11-14T15:10:49.895Z,8.35
2023-11-14T15:13:17.297Z,8.32
2023-11-14T15:15:45.349Z,8.34
2023-11-14T15:18:12.861Z,8.42
2023-11-14T15:20:42.400Z,8.42
2023-11-14T15:23:09.450Z,8.42
2023-11-14T15:25:36.531Z,8.43
2023-11-14T15:28:04.233Z,8.30
2023-11-14T15:30:31.255Z,8.22
2023-11-14T15:32:59.392Z,8.30
2023-11-14T15:35:27.771Z,8.13
2023-11-14T15:37:56.154Z,8.11
2023-11-14T15:40:23.584Z,8.15
2023-11-14T15:42:56.351Z,8.16
2023-11-14T15:45:26.978Z,8.24
2023-11-14T15:47:53.954Z,8.13
2023-11-14T15:50:21.329Z,8.19
2023-11-14T15:52:48.353Z,8.20
2023-11-14T15:55:15.341Z,8.17
2023-11-14T15:57:42.280Z,8.28
2023-11-14T16:00:12.352Z,8.26
2023-11-14T16:02:43.407Z,8.34
2023-11-14T16:05:11.664Z,8.24
2023-11-14T16:07:39.121Z,8.22
2023-11-14T16:10:07.861Z,8.21
2023-11-14T16:12:34.831Z,8.26
2023-11-14T16:15:04.240Z,8.08
2023-11-14T16:17:31.479Z,8.05
2023-11-14T16:19:58.597Z,8.05
2023-11-14T16:22:25.678Z,8.05
2023-11-14T16:24:52.688Z,7.99
2023-11-14T16:27:20.276Z,8.02
2023-11-14T16:29:49.220Z,7.86
2023-11-14T16:32:17.566Z,7.85
2023-11-14T16:34:44.577Z,7.85
2023-11-14T16:37:12.916Z,7.85
2023-11-14T16:39:39.882Z,7.88
2023-11-14T16:42:07.306Z,7.90
2023-11-14T16:44:34.339Z,7.97
2023-11-14T16:47:06.856Z,8.04
2023-11-14T16:49:37.022Z,8.01
2023-11-14T16:52:04.208Z,7.99
2023-11-14T16:54:31.195Z,7.98
2023-11-14T16:56:58.188Z,8.05
2023-11-14T16:59:25.207Z,8.08
2023-11-14T17:01:58.285Z,7.91
2023-11-14T17:04:27.680Z,7.95
2023-11-14T17:06:54.701Z,7.85
2023-11-14T17:09:22.530Z,7.92
2023-11-14T17:11:49.514Z,7.87
2023-11-14T17:14:16.532Z,8.04
2023-11-14T17:16:43.526Z,8.02
2023-11-14T17:19:11.152Z,8.10
2023-11-14T17:21:38.286Z,7.96
2023-11-14T17:24:05.844Z,7.92
2023-11-14T17:26:32.868Z,7.89
2023-11-14T17:29:00.741Z,8.02
2023-11-14T17:31:27.731Z,8.04
2023-11-14T17:33:55.909Z,8.12
2023-11-14T17:36:23.302Z,8.13
2023-11-14T17:38:50.250Z,8.14
2023-11-14T17:41:17.670Z,8.22
2023-11-14T17:43:44.925Z,8.14
2023-11-14T17:46:11.955Z,8.22
2023-11-14T17:48:39.143Z,8.20
2023-11-14T17:51:07.717Z,8.21
2023-11-14T17:53:34.900Z,8.24
2023-11-14T17:56:02.249Z,8.25
2023-11-14T17:58:29.824Z,8.35
2023-11-14T18:00:56.900Z,8.41
2023-11-14T18:03:24.073Z,8.40
2023-11-14T18:05:51.319Z,8.42
2023-11-14T18:08:18.489Z,8.45
2023-11-14T18:10:45.519Z,8.46
2023-11-14T18:13:16.126Z,8.48
2023-11-14T18:15:44.298Z,8.36
2023-11-14T18:18:11.614Z,8.41
2023-11-14T18:20:39.638Z,8.42
2023-11-14T18:23:06.883Z,8.45
2023-11-14T18:25:33.953Z,8.41
2023-11-14T18:28:01.213Z,8.49
2023-11-14T18:30:28.263Z,8.52
2023-11-14T18:32:55.478Z,8.50
2023-11-14T18:35:26.356Z,8.39
2023-11-14T18:37:56.048Z,8.39
2023-11-14T18:40:23.312Z,8.42
2023-11-14T18:42:50.273Z,8.37
2023-11-14T18:45:17.420Z,8.41
2023-11-14T18:47:44.781Z,8.46
2023-11-14T18:50:12.066Z,8.44
2023-11-14T18:52:40.812Z,8.40
2023-11-14T18:55:09.785Z,8.50
2023-11-14T18:57:37.153Z,8.51
2023-11-14T19:00:06.048Z,8.56
2023-11-14T19:02:34.421Z,8.61
2023-11-14T19:05:01.753Z,8.65
2023-11-14T19:07:28.980Z,8.68
2023-11-14T19:09:57.038Z,8.71
2023-11-14T19:12:26.987Z,8.78
2023-11-14T19:14:55.231Z,8.74
2023-11-14T19:17:23.134Z,8.75
2023-11-14T19:19:50.389Z,8.79
2023-11-14T19:22:49.676Z,8.76
2023-11-14T19:25:11.609Z,8.81
2023-11-14T19:27:39.417Z,8.81
2023-11-14T19:30:07.547Z,8.82
2023-11-14T19:32:34.675Z,8.86
2023-11-14T19:35:05.594Z,8.80
2023-11-14T19:37:33.226Z,8.80
2023-11-14T19:40:00.422Z,8.69
2023-11-14T19:42:27.647Z,8.79
2023-11-14T19:44:54.605Z,8.72
2023-11-14T19:47:23.204Z,8.70
2023-11-14T19:49:51.659Z,8.75
2023-11-14T19:52:18.852Z,8.81
2023-11-14T19:54:45.833Z,8.69
2023-11-14T19:57:12.831Z,8.77
2023-11-14T19:59:40.013Z,8.66
2023-11-14T20:02:07.381Z,8.61
2023-11-14T20:04:34.447Z,8.67
2023-11-14T20:07:01.934Z,8.70
2023-11-14T20:09:30.345Z,8.68
2023-11-14T20:11:58.361Z,8.62
2023-11-14T20:14:25.718Z,8.66
2023-11-14T20:16:52.740Z,8.68
2023-11-14T20:19:19.885Z,8.68
2023-11-14T20:21:47.166Z,8.75
2023-11-14T20:24:14.415Z,8.75
2023-11-14T20:26:44.491Z,8.79
2023-11-14T20:29:11.624Z,8.82
2023-11-14T20:31:38.685Z,8.85
2023-11-14T20:34:05.734Z,8.90
2023-11-14T20:36:33.013Z,8.83
2023-11-14T20:39:00.431Z,8.80
2023-11-14T20:41:28.619Z,8.81
2023-11-14T20:43:56.798Z,8.90
2023-11-14T20:46:25.176Z,8.85
2023-11-14T20:48:53.307Z,8.89
2023-11-14T20:51:25.459Z,8.90
2023-11-14T20:53:59.458Z,8.87
2023-11-14T20:56:27.273Z,8.89
2023-11-14T20:58:54.966Z,8.87
2023-11-14T21:01:23.325Z,8.87
2023-11-14T21:03:50.850Z,8.88
2023-11-14T21:06:17.953Z,8.88
2023-11-14T21:08:45.256Z,8.86
2023-11-14T21:11:12.559Z,8.88
2023-11-14T21:13:40.495Z,8.84
2023-11-14T21:16:11.210Z,8.81
2023-11-14T21:18:38.917Z,8.91
2023-11-14T21:21:08.538Z,8.91
2023-11-14T21:23:40.130Z,8.86
2023-11-14T21:26:09.955Z,8.82
2023-11-14T21:28:39.843Z,8.86
2023-11-14T21:31:12.056Z,8.83
2023-11-14T21:33:39.659Z,8.82
2023-11-14T21:36:10.414Z,8.79
2023-11-14T21:38:38.234Z,8.81
2023-11-14T21:41:05.744Z,8.79
2023-11-14T21:43:33.071Z,8.74
2023-11-14T21:46:00.259Z,8.78
2023-11-14T21:48:27.442Z,8.70
2023-11-14T21:50:55.478Z,8.69
2023-11-14T21:53:22.719Z,8.67
2023-11-14T21:55:49.988Z,8.57
2023-11-14T21:58:17.061Z,8.64
2023-11-14T22:00:44.121Z,8.62
2023-11-14T22:03:11.237Z,8.55
2023-11-14T22:05:38.370Z,8.46
2023-11-14T22:08:05.889Z,8.39
2023-11-14T22:10:32.974Z,8.43
2023-11-14T22:13:00.013Z,8.43
2023-11-14T22:15:27.129Z,8.38
2023-11-14T22:17:54.253Z,8.41
2023-11-14T22:20:21.364Z,8.34
2023-11-14T22:22:48.394Z,8.35
2023-11-14T22:25:15.362Z,8.39
2023-11-14T22:27:43.617Z,8.36
2023-11-14T22:30:13.090Z,8.35
2023-11-14T22:32:40.261Z,8.36
2023-11-14T22:35:08.212Z,8.38
2023-11-14T22:37:35.918Z,8.38
2023-11-14T22:40:04.326Z,8.36
2023-11-14T22:42:31.334Z,8.34
2023-11-14T22:44:59.193Z,8.39
2023-11-14T22:47:26.801Z,8.46
2023-11-14T22:49:57.584Z,8.39
2023-11-14T22:52:24.659Z,8.45
2023-11-14T22:54:51.733Z,8.47
2023-11-14T22:57:20.586Z,8.60
2023-11-14T22:59:48.910Z,8.61
2023-11-14T23:02:16.051Z,8.56
2023-11-14T23:04:43.358Z,8.66
2023-11-14T23:07:10.707Z,8.72
2023-11-14T23:09:39.098Z,8.81
2023-11-14T23:12:07.312Z,8.81
2023-11-14T23:14:34.662Z,8.91
2023-11-14T23:17:01.806Z,8.95
2023-11-14T23:19:29.498Z,8.98
2023-11-14T23:21:59.832Z,9.00
2023-11-14T23:24:27.241Z,8.96
2023-11-14T23:26:54.266Z,8.90
2023-11-14T23:29:21.331Z,8.97
2023-11-14T23:31:48.320Z,9.03
2023-11-14T23:34:16.055Z,9.03
2023-11-14T23:36:43.480Z,8.95
2023-11-14T23:39:10.779Z,8.98
2023-11-14T23:41:39.770Z,9.06
2023-11-14T23:44:07.150Z,8.93
2023-11-14T23:46:34.190Z,8.98
2023-11-14T23:49:01.302Z,8.98
2023-11-14T23:51:28.811Z,8.89
2023-11-14T23:53:56.496Z,8.88
2023-11-14T23:56:24.065Z,8.90
2023-11-14T23:58:51.028Z,8.88
